Time;durP1;ratioP1;P1;durP2;ratioP2;P2;SDS_P1;SDS_P2;PMS_P1;PMS_P2;Temp;Humidity;BMP_temperature;BMP_pressure;BME280_temperature;BME280_humidity;BME280_pressure;Samples;Min_cycle;Max_cycle;Signal;HPM_P1;HPM_P2
2021/12/08 00:00:47;;;;;;;3.70;1.10;;;7.00;89.90;;;;;;5111979;28;20491;-74
2021/12/08 00:03:14;;;;;;;3.72;0.63;;;7.00;90.20;;;;;;5110850;28;20106;-74
2021/12/08 00:05:44;;;;;;;3.10;0.73;;;7.00;90.10;;;;;;5107756;28;20111;-73
2021/12/08 00:08:11;;;;;;;4.00;1.00;;;6.90;90.20;;;;;;5108362;28;20429;-74
2021/12/08 00:13:02;;;;;;;3.22;0.90;;;6.90;90.60;;;;;;5108487;28;20050;-73
2021/12/08 00:13:39;;;;;;;3.88;0.73;;;6.90;90.20;;;;;;5096049;28;20066;-74
2021/12/08 00:16:11;;;;;;;3.15;0.50;;;6.90;90.30;;;;;;5108564;28;20087;-73
2021/12/08 00:18:43;;;;;;;2.40;0.85;;;6.90;90.10;;;;;;5111470;28;20118;-73
2021/12/08 00:21:10;;;;;;;3.92;0.70;;;6.90;90.30;;;;;;5109062;28;20035;-73
2021/12/08 00:23:36;;;;;;;5.22;0.80;;;6.90;90.40;;;;;;5108038;28;20491;-74
2021/12/08 00:26:03;;;;;;;2.88;0.70;;;7.00;90.40;;;;;;5108559;28;20107;-74
2021/12/08 00:28:29;;;;;;;3.20;0.85;;;6.90;90.10;;;;;;5111857;28;20396;-74
2021/12/08 00:30:57;;;;;;;4.10;0.60;;;7.00;90.30;;;;;;5111250;28;20027;-74
2021/12/08 00:33:24;;;;;;;4.10;0.80;;;7.00;90.10;;;;;;5113951;28;20085;-74
2021/12/08 00:35:51;;;;;;;5.28;0.80;;;7.00;90.30;;;;;;5098281;28;20349;-73
2021/12/08 00:38:18;;;;;;;4.32;1.20;;;7.10;90.10;;;;;;5111680;28;20065;-74
2021/12/08 00:40:45;;;;;;;1.83;0.75;;;7.10;90.10;;;;;;5111802;28;20077;-74
2021/12/08 00:43:11;;;;;;;2.25;0.65;;;7.20;90.00;;;;;;5093625;28;20063;-74
2021/12/08 00:45:37;;;;;;;4.07;0.60;;;7.20;89.60;;;;;;5115323;28;20056;-75
2021/12/08 00:48:03;;;;;;;3.55;0.60;;;7.20;90.10;;;;;;5111003;28;20491;-74
2021/12/08 00:50:33;;;;;;;3.47;0.65;;;7.20;89.40;;;;;;5097478;28;20077;-74
2021/12/08 00:52:59;;;;;;;1.40;1.02;;;7.20;89.50;;;;;;5111149;28;20027;-75
2021/12/08 00:55:26;;;;;;;3.33;0.90;;;7.20;89.40;;;;;;5111714;28;20137;-74
2021/12/08 00:57:52;;;;;;;3.72;0.90;;;7.30;88.80;;;;;;5113603;28;20027;-75
2021/12/08 01:00:28;;;;;;;4.43;0.85;;;7.30;89.20;;;;;;5099215;28;20030;-75
2021/12/08 01:02:54;;;;;;;4.75;0.70;;;7.30;88.60;;;;;;5110252;27;20024;-75
2021/12/08 01:05:25;;;;;;;2.35;0.60;;;7.30;89.50;;;;;;5105264;28;20480;-75
2021/12/08 01:07:51;;;;;;;3.28;0.52;;;7.30;88.90;;;;;;5111379;28;20030;-75
2021/12/08 01:10:21;;;;;;;4.18;1.00;;;7.30;88.60;;;;;;5093237;28;20111;-75
2021/12/08 01:12:47;;;;;;;2.45;0.50;;;7.20;89.20;;;;;;5097817;28;20054;-74
2021/12/08 01:15:13;;;;;;;3.15;0.60;;;7.20;89.10;;;;;;5112338;28;20501;-74
2021/12/08 01:17:40;;;;;;;1.27;0.40;;;7.20;88.40;;;;;;5110928;28;20068;-74
2021/12/08 01:20:09;;;;;;;4.38;0.70;;;7.20;88.70;;;;;;5110645;28;20024;-74
2021/12/08 01:22:35;;;;;;;4.93;0.70;;;7.10;88.10;;;;;;5111040;28;20051;-74
2021/12/08 01:25:00;;;;;;;1.83;0.63;;;7.10;88.60;;;;;;5112450;28;20078;-74
2021/12/08 01:27:26;;;;;;;1.33;0.47;;;7.10;88.70;;;;;;5099558;28;20050;-75
2021/12/08 01:29:52;;;;;;;2.28;0.43;;;7.10;88.10;;;;;;5112914;28;20077;-75
2021/12/08 01:32:19;;;;;;;2.20;0.40;;;7.10;88.90;;;;;;5110164;28;20072;-75
2021/12/08 01:34:45;;;;;;;3.58;0.55;;;7.10;88.60;;;;;;5110327;28;20491;-75
2021/12/08 01:37:11;;;;;;;3.22;0.32;;;7.20;88.50;;;;;;5092931;28;20020;-75
2021/12/08 01:39:37;;;;;;;1.88;0.30;;;7.20;88.00;;;;;;5114222;28;20602;-75
2021/12/08 01:42:03;;;;;;;2.05;0.30;;;7.20;88.30;;;;;;5099886;28;20028;-74
2021/12/08 01:47:13;;;;;;;2.42;0.30;;;7.20;87.90;;;;;;5110267;28;20023;-74
2021/12/08 01:49:38;;;;;;;1.20;0.63;;;7.20;87.50;;;;;;5092924;28;20035;-74
2021/12/08 01:52:04;;;;;;;1.20;0.30;;;7.20;88.10;;;;;;5110908;28;20039;-74
2021/12/08 01:54:30;;;;;;;0.55;0.20;;;7.20;87.90;;;;;;5113061;28;20122;-74
2021/12/08 01:56:57;;;;;;;1.02;0.20;;;7.20;87.00;;;;;;5109950;28;20053;-74
2021/12/08 01:59:23;;;;;;;0.82;0.20;;;7.20;87.50;;;;;;5110218;28;20027;-74
2021/12/08 02:01:48;;;;;;;3.55;0.38;;;7.20;88.00;;;;;;5110537;27;20027;-75
2021/12/08 02:04:15;;;;;;;1.60;0.20;;;7.10;87.40;;;;;;5109922;28;20561;-75
2021/12/08 02:06:45;;;;;;;1.20;0.20;;;7.10;87.60;;;;;;5113220;28;20015;-75
2021/12/08 02:09:15;;;;;;;1.98;0.38;;;7.10;87.20;;;;;;5111374;28;20245;-75
2021/12/08 02:11:46;;;;;;;3.83;0.30;;;7.00;87.70;;;;;;5099197;28;20022;-75
2021/12/08 02:14:13;;;;;;;1.60;0.28;;;7.00;87.30;;;;;;5109403;28;20555;-75
2021/12/08 02:16:40;;;;;;;1.15;0.30;;;7.00;87.60;;;;;;5110311;28;20076;-75
2021/12/08 02:19:06;;;;;;;1.80;0.30;;;7.00;88.20;;;;;;5092215;28;20040;-75
2021/12/08 02:21:39;;;;;;;0.75;0.20;;;6.90;87.60;;;;;;5113098;28;20031;-75
2021/12/08 02:24:14;;;;;;;1.33;0.15;;;6.90;87.70;;;;;;5109414;28;20036;-75
2021/12/08 02:26:45;;;;;;;3.10;0.30;;;6.90;87.80;;;;;;5109999;28;20023;-75
2021/12/08 02:29:21;;;;;;;1.85;0.30;;;6.90;87.80;;;;;;5114825;27;20135;-75
2021/12/08 02:32:03;;;;;;;2.53;0.20;;;6.80;88.20;;;;;;5109537;28;20442;-75
2021/12/08 02:48:25;;;;;;;0.65;0.10;;;6.80;88.00;;;;;;5073103;28;20549;-75
2021/12/08 02:50:51;;;;;;;2.60;0.32;;;6.80;88.50;;;;;;5072429;28;20124;-74
2021/12/08 02:53:17;;;;;;;2.35;0.40;;;6.80;88.40;;;;;;5072959;28;20132;-75
2021/12/08 02:55:44;;;;;;;2.80;0.32;;;6.80;88.50;;;;;;5057001;28;20040;-75
2021/12/08 02:58:10;;;;;;;1.67;0.20;;;6.70;88.30;;;;;;5068240;28;20121;-75
2021/12/08 03:00:40;;;;;;;1.25;0.30;;;6.70;88.20;;;;;;5074451;28;20121;-75
2021/12/08 03:03:06;;;;;;;1.48;0.40;;;6.70;88.40;;;;;;5071568;28;20070;-75
2021/12/08 03:05:33;;;;;;;0.98;0.40;;;6.70;88.60;;;;;;5072521;28;20032;-75
2021/12/08 03:08:00;;;;;;;2.15;0.25;;;6.70;88.60;;;;;;5072710;28;20028;-75
2021/12/08 03:10:29;;;;;;;3.53;0.82;;;6.70;88.80;;;;;;5070087;28;20029;-75
2021/12/08 03:12:54;;;;;;;2.08;0.85;;;6.60;88.60;;;;;;5069728;28;20021;-75
2021/12/08 03:15:20;;;;;;;1.88;0.35;;;6.60;88.70;;;;;;5081615;28;20063;-75
2021/12/08 03:17:46;;;;;;;2.05;0.38;;;6.60;88.70;;;;;;5095652;28;20392;-75
2021/12/08 03:20:16;;;;;;;2.72;0.50;;;6.60;88.90;;;;;;5108380;28;20038;-76
2021/12/08 03:22:46;;;;;;;2.63;0.38;;;6.60;89.00;;;;;;5109213;28;20484;-75
2021/12/08 03:25:16;;;;;;;3.85;0.50;;;6.50;88.80;;;;;;5092141;28;20063;-74
2021/12/08 03:28:04;;;;;;;2.28;0.38;;;6.60;89.10;;;;;;5111541;28;20028;-74
2021/12/08 03:30:34;;;;;;;3.75;0.50;;;6.60;88.90;;;;;;5111142;28;20030;-74
2021/12/08 03:33:00;;;;;;;2.65;0.45;;;6.50;88.90;;;;;;5108423;28;20019;-74
2021/12/08 03:35:26;;;;;;;1.83;0.47;;;6.50;89.10;;;;;;5108563;28;20076;-74
2021/12/08 03:37:51;;;;;;;3.28;0.30;;;6.60;89.00;;;;;;5108416;28;20084;-74
2021/12/08 03:40:21;;;;;;;2.45;0.40;;;6.50;89.40;;;;;;5108683;28;20023;-74
2021/12/08 03:42:48;;;;;;;3.90;0.57;;;6.50;89.10;;;;;;5110939;28;20012;-74
2021/12/08 03:45:21;;;;;;;1.55;0.50;;;6.50;88.90;;;;;;5109973;28;20024;-74
2021/12/08 03:47:48;;;;;;;0.80;0.30;;;6.40;89.20;;;;;;5095468;28;20019;-74
2021/12/08 03:50:17;;;;;;;1.65;0.50;;;6.40;89.20;;;;;;5107989;28;20277;-74
2021/12/08 03:52:44;;;;;;;0.85;0.45;;;6.50;89.30;;;;;;5092059;28;20035;-74
2021/12/08 03:55:14;;;;;;;2.33;0.30;;;6.50;89.40;;;;;;5108016;28;20043;-74
2021/12/08 03:57:40;;;;;;;5.05;0.50;;;6.50;89.20;;;;;;5107728;28;20156;-73
2021/12/08 04:00:10;;;;;;;0.57;0.30;;;6.50;89.10;;;;;;5097707;28;20022;-74
2021/12/08 04:02:35;;;;;;;2.58;0.55;;;6.50;89.10;;;;;;5112801;27;20023;-75
2021/12/08 04:05:03;;;;;;;2.30;0.40;;;6.50;90.00;;;;;;5112406;28;20038;-74
2021/12/08 04:07:30;;;;;;;1.42;0.43;;;6.50;89.10;;;;;;5112371;28;20032;-74
2021/12/08 04:09:56;;;;;;;1.67;0.30;;;6.50;88.70;;;;;;5114281;28;20024;-73
2021/12/08 04:12:22;;;;;;;1.85;0.57;;;6.40;88.50;;;;;;5098624;28;20050;-73
2021/12/08 04:14:58;;;;;;;2.47;0.50;;;6.40;88.90;;;;;;5099256;28;20112;-75
2021/12/08 04:17:28;;;;;;;2.17;0.43;;;6.40;88.90;;;;;;5106470;28;20361;-74
2021/12/08 04:19:55;;;;;;;1.00;0.30;;;6.40;88.80;;;;;;5113078;28;20506;-74
2021/12/08 04:22:34;;;;;;;1.77;0.47;;;6.40;88.90;;;;;;5112520;28;20023;-75
2021/12/08 04:25:03;;;;;;;1.08;0.50;;;6.40;88.50;;;;;;5112879;28;20044;-74
2021/12/08 04:27:34;;;;;;;4.00;0.50;;;6.40;89.00;;;;;;5114397;28;20024;-74
2021/12/08 04:30:02;;;;;;;3.00;0.45;;;6.50;88.90;;;;;;5111734;28;20023;-75
2021/12/08 04:32:32;;;;;;;1.80;0.30;;;6.40;89.60;;;;;;5097912;28;20461;-74
2021/12/08 04:35:00;;;;;;;1.75;0.50;;;6.40;88.70;;;;;;5111039;28;20028;-74
2021/12/08 04:37:35;;;;;;;2.05;0.35;;;6.40;88.40;;;;;;5112048;28;20518;-75
2021/12/08 04:40:31;;;;;;;3.40;0.63;;;6.40;88.00;;;;;;5113286;28;20030;-74
2021/12/08 04:45:40;;;;;;;2.10;0.50;;;6.30;88.70;;;;;;5114609;28;20035;-75
2021/12/08 04:48:29;;;;;;;4.75;0.70;;;6.40;89.20;;;;;;5113774;28;20015;-75
2021/12/08 04:54:04;;;;;;;1.55;0.40;;;6.40;88.80;;;;;;5110733;28;20055;-75
2021/12/08 05:02:20;;;;;;;1.65;0.50;;;6.30;88.10;;;;;;5111319;28;20038;-75
2021/12/08 05:10:03;;;;;;;1.08;0.40;;;6.20;88.30;;;;;;5111389;28;20028;-76
2021/12/08 05:12:33;;;;;;;2.08;0.40;;;6.20;88.20;;;;;;5132887;27;20031;-75
2021/12/08 05:15:12;;;;;;;1.42;0.40;;;6.20;88.20;;;;;;5096671;28;20517;-76
2021/12/08 05:18:05;;;;;;;2.22;0.50;;;6.20;88.30;;;;;;5109883;28;20015;-76
2021/12/08 05:20:46;;;;;;;2.00;0.40;;;6.20;88.20;;;;;;5101795;28;20040;-76
2021/12/08 05:23:31;;;;;;;3.35;0.50;;;6.20;88.40;;;;;;5109577;28;20040;-76
2021/12/08 05:26:00;;;;;;;2.10;0.52;;;6.10;88.00;;;;;;5109798;28;20016;-76
2021/12/08 05:28:29;;;;;;;2.10;0.50;;;6.10;88.60;;;;;;5109825;28;20024;-75
2021/12/08 05:31:01;;;;;;;3.17;0.52;;;6.20;88.40;;;;;;5112033;28;20067;-75
2021/12/08 05:33:27;;;;;;;2.47;0.55;;;6.10;88.20;;;;;;5096490;28;20024;-75
2021/12/08 05:35:54;;;;;;;1.85;0.50;;;6.10;88.00;;;;;;5128704;27;20031;-74
2021/12/08 05:38:20;;;;;;;2.33;0.43;;;6.10;88.40;;;;;;5109070;28;20031;-74
2021/12/08 05:41:06;;;;;;;1.65;0.40;;;6.10;88.80;;;;;;5109872;28;20019;-75
2021/12/08 05:43:32;;;;;;;3.83;0.40;;;6.10;89.00;;;;;;5091663;28;20097;-75
2021/12/08 05:45:58;;;;;;;2.10;0.40;;;6.20;88.60;;;;;;5111421;28;20031;-74
2021/12/08 05:48:27;;;;;;;1.90;0.50;;;6.20;88.60;;;;;;5111519;28;20092;-74
2021/12/08 05:50:59;;;;;;;1.23;0.30;;;6.20;87.90;;;;;;5109361;28;20023;-74
2021/12/08 05:53:26;;;;;;;4.07;0.87;;;6.20;88.10;;;;;;5058713;28;1425257;-75
2021/12/08 05:55:52;;;;;;;2.22;0.50;;;6.20;88.10;;;;;;5110605;28;20023;-75
2021/12/08 05:58:21;;;;;;;1.35;0.40;;;6.30;88.50;;;;;;5110472;28;20020;-75
2021/12/08 06:01:03;;;;;;;1.60;0.52;;;6.30;88.10;;;;;;5097401;27;20028;-74
2021/12/08 06:03:29;;;;;;;2.13;0.60;;;6.40;88.50;;;;;;5111634;28;20027;-75
2021/12/08 06:05:56;;;;;;;2.13;0.50;;;6.50;87.90;;;;;;5109612;28;20028;-75
2021/12/08 06:08:23;;;;;;;1.80;0.65;;;6.40;88.10;;;;;;5109685;28;20024;-75
2021/12/08 06:10:49;;;;;;;0.80;0.40;;;6.50;87.80;;;;;;5094273;28;20474;-75
2021/12/08 06:13:17;;;;;;;1.73;0.40;;;6.50;87.40;;;;;;5110305;28;20111;-75
2021/12/08 06:15:46;;;;;;;0.77;0.30;;;6.50;87.30;;;;;;5098084;28;20460;-74
2021/12/08 06:18:12;;;;;;;1.70;0.60;;;6.50;86.90;;;;;;5111050;28;20020;-75
2021/12/08 06:20:38;;;;;;;1.77;0.45;;;6.50;87.50;;;;;;5109919;28;20099;-73
2021/12/08 06:23:06;;;;;;;1.35;0.45;;;6.50;87.40;;;;;;5109468;28;20024;-75
2021/12/08 06:25:33;;;;;;;2.63;0.52;;;6.50;87.30;;;;;;5109518;28;20020;-75
2021/12/08 06:27:58;;;;;;;3.40;0.50;;;6.40;87.60;;;;;;5111443;28;20051;-75
2021/12/08 06:30:28;;;;;;;1.60;0.40;;;6.40;87.30;;;;;;5111802;28;20092;-73
2021/12/08 06:32:54;;;;;;;1.70;0.40;;;6.40;87.10;;;;;;5096193;28;20503;-75
2021/12/08 06:35:31;;;;;;;1.95;0.50;;;6.30;87.40;;;;;;5109261;28;20027;-72
2021/12/08 06:37:58;;;;;;;2.20;0.50;;;6.30;87.60;;;;;;5109708;28;20024;-71
2021/12/08 06:40:31;;;;;;;2.00;0.60;;;6.30;87.70;;;;;;5109575;28;20046;-71
2021/12/08 06:43:00;;;;;;;1.85;0.60;;;6.30;87.60;;;;;;5110940;28;20023;-73
2021/12/08 06:45:37;;;;;;;1.10;0.50;;;6.30;87.60;;;;;;5113248;28;20038;-69
2021/12/08 06:48:07;;;;;;;4.30;0.68;;;6.30;88.00;;;;;;5109355;28;20028;-76
2021/12/08 06:51:06;;;;;;;2.10;0.40;;;6.30;87.50;;;;;;5096059;28;20080;-75
2021/12/08 06:53:33;;;;;;;3.95;0.50;;;6.30;88.00;;;;;;5108193;28;20046;-75
2021/12/08 06:56:05;;;;;;;2.08;0.47;;;6.30;87.80;;;;;;5109553;28;20023;-76
2021/12/08 06:58:36;;;;;;;0.82;0.38;;;6.30;87.80;;;;;;5109638;28;20024;-76
2021/12/08 07:04:13;;;;;;;1.35;0.63;;;6.30;88.10;;;;;;5113025;28;20120;-76
2021/12/08 07:06:59;;;;;;;1.63;0.60;;;6.30;88.10;;;;;;5109391;28;20380;-76
2021/12/08 07:09:31;;;;;;;2.58;0.70;;;6.30;88.00;;;;;;5111416;28;20032;-76
2021/12/08 07:12:04;;;;;;;2.78;0.65;;;6.30;88.30;;;;;;5109262;28;20032;-76
2021/12/08 07:14:31;;;;;;;2.53;0.60;;;6.40;88.50;;;;;;5109399;28;20388;-76
2021/12/08 07:17:02;;;;;;;2.67;0.73;;;6.50;88.50;;;;;;5109529;28;20032;-76
2021/12/08 07:19:36;;;;;;;1.70;0.57;;;6.40;88.20;;;;;;5109172;28;20370;-76
2021/12/08 07:22:05;;;;;;;1.38;0.50;;;6.40;89.10;;;;;;5110561;28;20070;-76
2021/12/08 07:24:36;;;;;;;1.75;0.50;;;6.40;88.00;;;;;;5110985;28;20115;-77
2021/12/08 07:27:06;;;;;;;2.30;0.70;;;6.40;88.00;;;;;;5110657;28;20517;-76
2021/12/08 07:29:36;;;;;;;2.00;0.60;;;6.40;88.40;;;;;;5109255;28;20024;-76
2021/12/08 07:32:08;;;;;;;2.60;0.40;;;6.40;88.00;;;;;;5094998;28;20027;-75
2021/12/08 07:34:35;;;;;;;1.88;0.43;;;6.30;88.40;;;;;;5108279;28;20015;-75
2021/12/08 07:37:06;;;;;;;2.65;0.40;;;6.30;88.10;;;;;;5110252;28;20123;-75
2021/12/08 07:39:42;;;;;;;1.02;0.45;;;6.30;88.40;;;;;;5111838;28;20042;-76
2021/12/08 07:42:30;;;;;;;3.38;0.55;;;6.30;88.30;;;;;;5109821;28;20101;-77
2021/12/08 07:44:59;;;;;;;1.60;0.40;;;6.40;88.50;;;;;;5109015;28;20135;-76
2021/12/08 07:47:27;;;;;;;2.70;0.60;;;6.30;88.30;;;;;;5108781;28;20016;-76
2021/12/08 07:50:18;;;;;;;2.17;0.40;;;6.30;88.40;;;;;;5107819;28;20024;-77
2021/12/08 07:52:47;;;;;;;3.17;1.10;;;6.30;88.10;;;;;;5107724;28;20036;-75
2021/12/08 07:55:20;;;;;;;3.85;1.30;;;6.30;88.10;;;;;;5108681;28;20089;-74
2021/12/08 07:57:46;;;;;;;1.58;0.60;;;6.40;88.60;;;;;;5110180;28;20036;-73
2021/12/08 08:00:21;;;;;;;1.58;0.65;;;6.40;88.00;;;;;;5109191;28;20032;-74
2021/12/08 08:02:47;;;;;;;3.22;0.70;;;6.40;88.30;;;;;;5108857;28;20068;-74
2021/12/08 08:05:15;;;;;;;2.30;0.95;;;6.40;88.40;;;;;;5093355;28;20052;-74
2021/12/08 08:07:42;;;;;;;3.10;0.90;;;6.40;88.30;;;;;;5090781;28;20430;-74
2021/12/08 08:10:14;;;;;;;2.80;0.90;;;6.40;88.10;;;;;;5108585;28;20467;-74
2021/12/08 08:12:41;;;;;;;1.83;0.65;;;6.40;87.60;;;;;;5109348;28;20026;-76
2021/12/08 08:15:14;;;;;;;3.42;0.88;;;6.40;87.80;;;;;;5108678;28;20020;-74
2021/12/08 08:17:44;;;;;;;3.60;0.75;;;6.40;88.60;;;;;;5093537;28;20044;-75
2021/12/08 08:20:19;;;;;;;1.70;0.65;;;6.50;87.90;;;;;;5089594;28;20035;-74
2021/12/08 08:22:45;;;;;;;1.52;0.70;;;6.40;87.60;;;;;;5107190;28;20102;-75
2021/12/08 08:25:15;;;;;;;2.75;0.70;;;6.40;88.20;;;;;;5116453;28;20051;-74
2021/12/08 08:27:42;;;;;;;4.10;0.80;;;6.40;88.00;;;;;;5109403;28;20024;-75
2021/12/08 08:30:11;;;;;;;3.65;0.90;;;6.50;88.30;;;;;;5109931;28;20028;-75
2021/12/08 08:32:40;;;;;;;1.65;0.73;;;6.50;88.30;;;;;;5104574;28;20031;-75
2021/12/08 08:35:26;;;;;;;2.13;0.70;;;6.60;88.30;;;;;;5115604;28;20122;-75
2021/12/08 08:37:53;;;;;;;2.22;0.60;;;6.60;88.50;;;;;;5104056;28;20035;-75
2021/12/08 08:40:38;;;;;;;1.45;0.60;;;6.70;88.10;;;;;;5093746;28;20073;-76
2021/12/08 08:43:05;;;;;;;2.83;0.60;;;6.70;88.40;;;;;;5096399;28;20036;-75
2021/12/08 08:45:34;;;;;;;3.30;1.10;;;6.90;88.50;;;;;;5109022;28;20081;-79
2021/12/08 08:48:13;;;;;;;2.95;0.65;;;7.00;87.90;;;;;;5110270;27;20028;-75
2021/12/08 08:50:45;;;;;;;3.33;0.68;;;7.10;87.80;;;;;;5094996;28;20514;-78
2021/12/08 08:53:11;;;;;;;2.22;0.60;;;7.10;87.20;;;;;;5096435;27;20130;-77
2021/12/08 08:55:48;;;;;;;4.30;1.65;;;7.10;87.20;;;;;;5111633;27;20035;-78
2021/12/08 08:58:16;;;;;;;3.38;0.90;;;7.00;86.30;;;;;;5114592;27;20012;-77
2021/12/08 09:00:53;;;;;;;1.50;0.60;;;7.00;86.10;;;;;;5094148;27;20039;-77
2021/12/08 09:03:27;;;;;;;2.63;0.60;;;7.00;86.40;;;;;;5118756;27;20496;-78
2021/12/08 09:05:55;;;;;;;;;;;6.90;86.50;;;;;;5099013;27;20077;-77
2021/12/08 09:08:26;;;;;;;3.47;0.73;;;6.90;87.00;;;;;;5110191;28;19907;-76
2021/12/08 09:11:06;;;;;;;3.47;0.68;;;6.80;86.20;;;;;;5103565;27;20587;-76
2021/12/08 09:13:45;;;;;;;1.30;0.60;;;6.80;86.60;;;;;;5110900;28;20077;-76
2021/12/08 09:16:24;;;;;;;1.30;0.70;;;6.80;86.80;;;;;;5121533;27;20031;-75
2021/12/08 09:19:00;;;;;;;2.03;0.70;;;6.80;87.00;;;;;;5094485;27;20028;-77
2021/12/08 09:21:28;;;;;;;2.60;0.50;;;6.80;86.80;;;;;;5098210;27;20368;-77
2021/12/08 09:24:14;;;;;;;3.72;0.85;;;7.00;87.40;;;;;;5112014;27;20035;-77
2021/12/08 09:26:46;;;;;;;1.83;0.60;;;7.20;87.60;;;;;;5109837;28;20031;-77
2021/12/08 09:29:20;;;;;;;4.35;0.80;;;7.50;87.90;;;;;;5130200;27;20419;-77
2021/12/08 09:32:06;;;;;;;1.88;0.80;;;7.70;88.60;;;;;;5113245;27;20023;-76
2021/12/08 09:34:38;;;;;;;2.97;0.88;;;8.20;88.50;;;;;;5118266;27;20038;-76
2021/12/08 09:37:09;;;;;;;1.70;0.80;;;8.90;88.10;;;;;;5111590;27;20042;-77
2021/12/08 09:39:41;;;;;;;1.23;0.60;;;9.60;87.50;;;;;;5122070;27;20424;-76
2021/12/08 09:42:16;;;;;;;1.65;0.65;;;9.70;83.40;;;;;;5113575;27;20024;-77
2021/12/08 09:44:48;;;;;;;1.42;0.60;;;9.30;80.00;;;;;;5101764;28;20120;-77
2021/12/08 09:47:15;;;;;;;2.67;0.70;;;9.00;81.40;;;;;;5114429;27;20016;-77
2021/12/08 09:49:41;;;;;;;1.75;0.85;;;9.20;83.60;;;;;;5095880;28;20031;-78
2021/12/08 09:52:10;;;;;;;1.92;0.70;;;10.00;85.90;;;;;;5120344;27;20020;-76
2021/12/08 09:54:41;;;;;;;2.35;0.80;;;10.60;82.70;;;;;;5126825;27;20114;-75
2021/12/08 09:57:11;;;;;;;0.98;0.60;;;11.30;83.60;;;;;;5109075;27;20038;-76
2021/12/08 09:59:45;;;;;;;3.97;0.70;;;11.90;82.10;;;;;;5113754;27;20024;-74
2021/12/08 10:02:11;;;;;;;1.15;0.60;;;12.30;79.30;;;;;;5110654;27;20023;-75
2021/12/08 10:04:37;;;;;;;2.58;0.85;;;12.60;77.90;;;;;;5111276;27;20103;-76
2021/12/08 10:07:05;;;;;;;2.38;0.90;;;12.70;75.00;;;;;;5111158;27;20020;-76
2021/12/08 10:09:32;;;;;;;1.85;0.70;;;12.90;77.30;;;;;;5113837;27;20032;-75
2021/12/08 10:11:58;;;;;;;4.15;1.20;;;13.20;76.60;;;;;;5110737;28;20023;-75
2021/12/08 10:14:24;;;;;;;2.33;0.70;;;13.50;75.30;;;;;;5109817;28;20053;-74
2021/12/08 10:16:52;;;;;;;3.33;1.00;;;13.70;73.30;;;;;;5112234;27;20047;-74
2021/12/08 10:19:18;;;;;;;2.30;0.80;;;13.80;74.40;;;;;;5110044;28;20491;-74
2021/12/08 10:21:45;;;;;;;2.03;0.88;;;14.10;70.60;;;;;;5120177;27;20021;-73
2021/12/08 10:24:24;;;;;;;1.80;0.98;;;14.40;71.10;;;;;;5112827;27;20122;-76
2021/12/08 10:27:00;;;;;;;2.47;1.00;;;14.50;71.70;;;;;;5108980;28;20031;-76
2021/12/08 10:29:27;;;;;;;2.00;0.90;;;14.80;72.30;;;;;;5109996;28;20431;-76
2021/12/08 10:31:54;;;;;;;2.58;1.00;;;14.90;70.60;;;;;;5111747;27;20557;-75
2021/12/08 10:34:30;;;;;;;1.98;0.70;;;14.70;69.00;;;;;;5117835;27;20028;-76
2021/12/08 10:37:08;;;;;;;1.63;0.90;;;14.80;70.00;;;;;;5108756;28;20096;-76
2021/12/08 10:39:46;;;;;;;2.58;1.17;;;15.10;71.50;;;;;;5114722;27;20021;-75
2021/12/08 10:42:17;;;;;;;1.13;0.70;;;15.10;69.30;;;;;;5109331;27;20024;-75
2021/12/08 10:44:53;;;;;;;1.52;0.70;;;15.20;69.40;;;;;;5100782;28;20084;-74
2021/12/08 10:47:32;;;;;;;2.55;1.05;;;15.20;68.50;;;;;;5138259;27;20020;-75
2021/12/08 10:55:19;;;;;;;2.08;0.80;;;15.50;65.50;;;;;;5107377;28;20581;-75
2021/12/08 10:57:49;;;;;;;2.78;0.93;;;15.70;66.90;;;;;;5115806;27;20561;-74
2021/12/08 11:00:30;;;;;;;2.38;0.80;;;15.80;65.70;;;;;;5110062;27;20506;-74
2021/12/08 11:03:01;;;;;;;1.67;0.93;;;15.70;67.00;;;;;;5109629;28;20081;-75
2021/12/08 11:05:38;;;;;;;1.98;0.80;;;15.70;64.50;;;;;;5108716;28;20027;-74
2021/12/08 11:08:10;;;;;;;1.50;0.70;;;15.80;64.90;;;;;;5109161;28;20604;-74
2021/12/08 11:10:40;;;;;;;3.15;0.98;;;16.00;65.70;;;;;;5108018;27;20033;-74
2021/12/08 11:13:07;;;;;;;2.72;0.73;;;15.90;62.40;;;;;;5108864;28;20434;-75
2021/12/08 11:15:33;;;;;;;2.25;0.80;;;15.80;63.80;;;;;;5112192;27;20110;-75
2021/12/08 11:18:17;;;;;;;1.80;0.70;;;16.20;65.00;;;;;;5106711;27;20433;-74
2021/12/08 11:20:52;;;;;;;1.58;0.57;;;16.40;65.60;;;;;;5107961;28;20400;-75
2021/12/08 11:23:39;;;;;;;1.88;0.70;;;16.70;63.90;;;;;;5094447;28;20483;-73
2021/12/08 11:26:23;;;;;;;1.42;0.73;;;16.70;62.10;;;;;;5107557;28;20449;-75
2021/12/08 11:28:59;;;;;;;3.25;0.85;;;16.80;63.00;;;;;;5092051;27;20633;-78
2021/12/08 11:31:29;;;;;;;1.38;0.70;;;17.00;62.70;;;;;;5109980;28;20031;-75
2021/12/08 11:34:00;;;;;;;1.95;0.57;;;17.10;59.10;;;;;;5090107;28;20070;-75
2021/12/08 11:36:28;;;;;;;1.58;0.80;;;17.10;61.80;;;;;;5109637;28;20478;-74
2021/12/08 11:38:54;;;;;;;0.85;0.50;;;17.40;62.90;;;;;;5092768;28;20127;-72
2021/12/08 11:41:44;;;;;;;3.72;0.70;;;17.30;58.90;;;;;;5107505;28;20095;-66
2021/12/08 11:44:16;;;;;;;1.45;0.75;;;16.80;60.40;;;;;;5106141;28;20032;-66
2021/12/08 11:46:48;;;;;;;2.13;0.60;;;16.50;59.50;;;;;;5116348;27;20015;-77
2021/12/08 11:49:15;;;;;;;1.30;0.70;;;16.30;60.10;;;;;;5107140;28;20032;-77
2021/12/08 11:51:43;;;;;;;1.42;0.50;;;16.00;60.00;;;;;;5115923;28;20030;-81
2021/12/08 11:54:34;;;;;;;1.73;0.63;;;16.10;60.10;;;;;;5096753;28;20044;-80
2021/12/08 11:57:10;;;;;;;2.42;0.50;;;15.60;59.90;;;;;;5107952;28;20036;-80
2021/12/08 11:59:47;;;;;;;0.98;0.50;;;15.10;58.50;;;;;;5089688;28;20031;-73
2021/12/08 12:02:14;;;;;;;1.30;0.60;;;15.40;62.50;;;;;;5088679;28;20024;-74
2021/12/08 12:04:41;;;;;;;1.45;0.60;;;15.70;60.80;;;;;;5109211;28;20036;-74
2021/12/08 12:07:12;;;;;;;1.23;0.57;;;15.80;61.20;;;;;;5106676;28;20062;-79
2021/12/08 12:09:38;;;;;;;1.40;0.60;;;15.80;61.30;;;;;;5108305;28;20430;-79
2021/12/08 12:12:05;;;;;;;1.85;0.65;;;16.20;60.10;;;;;;5107939;28;20028;-77
2021/12/08 12:14:31;;;;;;;1.45;0.60;;;16.90;58.90;;;;;;5107404;28;20031;-75
2021/12/08 12:16:57;;;;;;;2.80;0.88;;;17.70;58.60;;;;;;5092517;28;20507;-68
2021/12/08 12:19:25;;;;;;;2.45;0.73;;;18.30;55.90;;;;;;5108066;28;20102;-67
2021/12/08 12:22:03;;;;;;;1.10;0.70;;;18.40;55.70;;;;;;5108384;28;20026;-68
2021/12/08 12:24:44;;;;;;;1.42;0.50;;;18.00;55.80;;;;;;5127786;27;20046;-67
2021/12/08 12:27:36;;;;;;;3.67;0.60;;;18.30;57.80;;;;;;5114785;27;20019;-69
2021/12/08 12:30:27;;;;;;;2.40;0.50;;;19.70;56.40;;;;;;5090392;28;20052;-70
2021/12/08 12:32:54;;;;;;;1.58;0.45;;;20.60;56.70;;;;;;5072086;28;20046;-68
2021/12/08 12:35:22;;;;;;;1.10;0.50;;;20.60;50.80;;;;;;5088272;28;20061;-68
2021/12/08 12:38:04;;;;;;;1.30;0.57;;;19.70;50.10;;;;;;5070063;28;20031;-68
2021/12/08 12:40:36;;;;;;;1.90;0.60;;;19.90;52.80;;;;;;5085526;28;20496;-69
2021/12/08 12:43:04;;;;;;;1.30;0.70;;;21.10;50.30;;;;;;5069002;28;20073;-69
2021/12/08 12:45:40;;;;;;;1.40;0.40;;;21.50;46.40;;;;;;5087439;28;20531;-70
2021/12/08 12:48:10;;;;;;;2.25;0.88;;;21.00;49.00;;;;;;5069699;28;20044;-69
2021/12/08 12:50:55;;;;;;;2.08;0.60;;;20.50;46.60;;;;;;5086565;28;20052;-70
2021/12/08 12:53:38;;;;;;;2.17;0.70;;;21.10;51.20;;;;;;5085310;28;20066;-71
2021/12/08 12:56:25;;;;;;;1.05;0.52;;;22.00;47.40;;;;;;5085851;28;20127;-71
2021/12/08 12:58:52;;;;;;;1.77;0.60;;;20.90;45.70;;;;;;5073536;28;20028;-69
2021/12/08 13:01:29;;;;;;;0.73;0.40;;;20.50;44.80;;;;;;5087220;28;20047;-70
2021/12/08 13:04:05;;;;;;;1.30;0.50;;;21.20;49.00;;;;;;5087995;28;20115;-69
2021/12/08 13:06:43;;;;;;;1.15;0.40;;;21.50;46.90;;;;;;5107258;28;20031;-72
2021/12/08 13:09:34;;;;;;;0.98;0.40;;;20.90;46.40;;;;;;5106273;27;20462;-68
2021/12/08 13:12:25;;;;;;;2.53;0.50;;;20.80;45.80;;;;;;5099915;27;20151;-71
2021/12/08 13:15:05;;;;;;;1.60;0.57;;;20.80;47.20;;;;;;5113085;27;20025;-69
2021/12/08 13:17:33;;;;;;;0.73;0.40;;;20.20;47.30;;;;;;5108924;27;20028;-66
2021/12/08 13:20:01;;;;;;;0.63;0.32;;;19.90;46.10;;;;;;5120741;27;20035;-65
2021/12/08 13:22:44;;;;;;;1.30;0.50;;;18.80;44.00;;;;;;5110195;27;20051;-65
2021/12/08 13:28:49;;;;;;;1.10;0.40;;;17.10;50.10;;;;;;5110032;27;20031;-65
2021/12/08 13:34:07;;;;;;;1.52;0.60;;;17.50;49.80;;;;;;5108229;28;22215;-66
2021/12/08 13:36:38;;;;;;;1.42;0.60;;;16.30;47.90;;;;;;5111877;28;20032;-65
2021/12/08 13:39:23;;;;;;;2.05;0.60;;;15.60;50.10;;;;;;5096235;28;20365;-68
2021/12/08 13:42:16;;;;;;;2.08;0.55;;;15.20;51.90;;;;;;5109291;28;20059;-66
2021/12/08 13:44:59;;;;;;;1.27;0.70;;;15.80;54.50;;;;;;5102213;27;20188;-66
2021/12/08 13:47:27;;;;;;;1.63;0.57;;;16.50;54.90;;;;;;5105949;28;20015;-68
2021/12/08 13:50:10;;;;;;;2.80;0.60;;;16.80;51.10;;;;;;5109536;28;20110;-67
2021/12/08 13:52:43;;;;;;;1.27;0.50;;;17.00;51.70;;;;;;5109438;28;20039;-66
2021/12/08 13:55:09;;;;;;;0.82;0.50;;;17.40;50.50;;;;;;5110199;28;20131;-65
2021/12/08 13:57:46;;;;;;;3.10;0.60;;;17.90;50.90;;;;;;5113287;28;20091;-65
2021/12/08 14:00:18;;;;;;;1.48;0.70;;;17.50;49.40;;;;;;5098145;28;20028;-65
2021/12/08 14:02:48;;;;;;;1.35;0.63;;;17.30;48.80;;;;;;5112241;27;20059;-65
2021/12/08 14:05:27;;;;;;;2.03;0.68;;;16.10;47.90;;;;;;5104116;28;20043;-64